createdAt,value
2018-12-24T00:00:07.392Z,5.90
2018-12-24T00:02:34.874Z,5.90
2018-12-24T00:07:28.107Z,5.90
2018-12-24T00:12:21.430Z,6.00
2018-12-24T00:14:49.837Z,6.00
2018-12-24T00:19:44.331Z,6.00
2018-12-24T00:22:11.419Z,6.00
2018-12-24T00:24:37.879Z,6.00
2018-12-24T00:27:05.771Z,5.90
2018-12-24T00:29:32.379Z,6.00
2018-12-24T00:31:58.813Z,6.00
2018-12-24T00:34:25.444Z,6.00
2018-12-24T00:36:52.297Z,6.00
2018-12-24T00:39:18.734Z,6.00
2018-12-24T00:41:45.343Z,6.00
2018-12-24T00:46:38.856Z,6.10
2018-12-24T00:49:06.284Z,6.00
2018-12-24T00:51:33.523Z,6.00
2018-12-24T00:54:00.368Z,6.00
2018-12-24T00:56:27.771Z,6.00
2018-12-24T00:58:54.205Z,6.00
2018-12-24T01:01:21.932Z,6.00
2018-12-24T01:03:48.435Z,6.00
2018-12-24T01:06:15.314Z,6.00
2018-12-24T01:08:42.214Z,6.00
2018-12-24T01:11:08.831Z,6.00
2018-12-24T01:13:36.854Z,6.10
2018-12-24T01:16:03.460Z,6.10
2018-12-24T01:18:30.038Z,6.10
2018-12-24T01:20:57.141Z,6.10
2018-12-24T01:25:53.193Z,6.10
2018-12-24T01:28:19.957Z,6.10
2018-12-24T01:30:46.499Z,6.20
2018-12-24T01:33:13.860Z,6.10
2018-12-24T01:35:41.107Z,6.20
2018-12-24T01:38:08.828Z,6.10
2018-12-24T01:40:35.577Z,6.20
2018-12-24T01:43:03.614Z,6.20
2018-12-24T01:45:30.108Z,6.20
2018-12-24T01:50:25.354Z,6.20
2018-12-24T01:55:20.483Z,6.20
2018-12-24T01:57:46.993Z,6.20
2018-12-24T02:00:13.673Z,6.20
2018-12-24T02:02:40.703Z,6.20
2018-12-24T02:05:07.889Z,6.10
2018-12-24T02:07:34.523Z,6.10
2018-12-24T02:10:04.166Z,6.20
2018-12-24T02:12:31.109Z,6.20
2018-12-24T02:14:59.467Z,6.20
2018-12-24T02:17:25.884Z,6.20
2018-12-24T02:19:53.147Z,6.20
2018-12-24T02:22:19.599Z,6.20
2018-12-24T02:27:14.924Z,6.20
2018-12-24T02:29:43.507Z,6.30
2018-12-24T02:34:38.639Z,6.20
2018-12-24T02:37:05.182Z,6.20
2018-12-24T02:39:31.678Z,6.30
2018-12-24T02:41:58.319Z,6.20
2018-12-24T02:44:24.858Z,6.20
2018-12-24T02:46:51.697Z,6.20
2018-12-24T02:49:18.202Z,6.20
2018-12-24T02:51:44.703Z,6.30
2018-12-24T02:54:12.632Z,6.20
2018-12-24T02:56:39.070Z,6.30
2018-12-24T03:01:33.599Z,6.30
2018-12-24T03:04:00.109Z,6.30
2018-12-24T03:06:27.097Z,6.30
2018-12-24T03:08:54.000Z,6.30
2018-12-24T03:13:47.875Z,6.30
2018-12-24T03:16:14.886Z,6.30
2018-12-24T03:18:41.407Z,6.30
2018-12-24T03:23:34.809Z,6.40
2018-12-24T03:26:01.453Z,6.30
2018-12-24T03:30:56.293Z,6.20
2018-12-24T03:33:22.753Z,6.30
2018-12-24T03:35:51.485Z,6.30
2018-12-24T03:38:18.916Z,6.30
2018-12-24T03:43:13.243Z,6.30
2018-12-24T03:45:39.902Z,6.30
2018-12-24T03:48:06.617Z,6.30
2018-12-24T03:50:33.445Z,6.30
2018-12-24T03:53:01.916Z,6.30
2018-12-24T03:55:30.826Z,6.30
2018-12-24T04:00:24.362Z,6.30
2018-12-24T04:02:50.803Z,6.20
2018-12-24T04:05:17.296Z,6.20
2018-12-24T04:10:12.513Z,6.30
2018-12-24T04:12:38.918Z,6.30
2018-12-24T04:17:32.064Z,6.30
2018-12-24T04:19:58.670Z,6.30
2018-12-24T04:22:25.165Z,6.30
2018-12-24T04:24:51.524Z,6.30
2018-12-24T04:27:17.915Z,6.30
2018-12-24T04:29:44.726Z,6.30
2018-12-24T04:32:11.153Z,6.30
2018-12-24T04:34:37.502Z,6.30
2018-12-24T04:37:04.046Z,6.30
2018-12-24T04:39:32.489Z,6.30
2018-12-24T04:41:59.171Z,6.30
2018-12-24T04:44:25.652Z,6.30
2018-12-24T04:46:52.175Z,6.30
2018-12-24T04:49:18.570Z,6.30
2018-12-24T04:51:45.532Z,6.30
2018-12-24T04:54:13.513Z,6.30
2018-12-24T04:56:40.080Z,6.30
2018-12-24T04:59:06.518Z,6.30
2018-12-24T05:01:35.210Z,6.30
2018-12-24T05:04:02.245Z,6.30
2018-12-24T05:06:29.870Z,6.30
2018-12-24T05:08:57.817Z,6.30
2018-12-24T05:11:24.826Z,6.30
2018-12-24T05:13:51.887Z,6.30
2018-12-24T05:16:18.916Z,6.30
2018-12-24T05:18:45.292Z,6.20
2018-12-24T05:21:13.548Z,6.30
2018-12-24T05:23:40.447Z,6.30
2018-12-24T05:26:06.956Z,6.30
2018-12-24T05:28:34.359Z,6.30
2018-12-24T05:31:01.403Z,6.30
2018-12-24T05:33:28.467Z,6.30
2018-12-24T05:35:54.865Z,6.30
2018-12-24T05:38:21.406Z,6.30
2018-12-24T05:40:48.182Z,6.30
2018-12-24T05:43:14.729Z,6.30
2018-12-24T05:45:41.845Z,6.30
2018-12-24T05:48:08.683Z,6.30
2018-12-24T05:55:31.405Z,6.30
2018-12-24T05:57:57.907Z,6.30
2018-12-24T06:00:24.319Z,6.30
2018-12-24T06:02:52.231Z,6.30
2018-12-24T06:07:46.490Z,6.40
2018-12-24T06:10:14.845Z,6.30
2018-12-24T06:12:41.607Z,6.40
2018-12-24T06:17:34.997Z,6.30
2018-12-24T06:20:01.448Z,6.30
2018-12-24T06:22:29.446Z,6.40
2018-12-24T06:24:56.040Z,6.30
2018-12-24T06:27:22.571Z,6.30
2018-12-24T06:29:49.703Z,6.30
2018-12-24T06:32:18.069Z,6.30
2018-12-24T06:34:44.873Z,6.30
2018-12-24T06:39:40.001Z,6.30
2018-12-24T06:42:07.101Z,6.30
2018-12-24T06:44:33.590Z,6.30
2018-12-24T06:47:00.747Z,6.30
2018-12-24T06:49:28.366Z,6.20
2018-12-24T06:51:54.960Z,6.30
2018-12-24T06:56:52.006Z,6.30
2018-12-24T06:59:18.528Z,6.30
2018-12-24T07:01:45.167Z,6.40
2018-12-24T07:04:11.742Z,6.40
2018-12-24T07:11:36.329Z,6.40
2018-12-24T07:14:03.002Z,6.40
2018-12-24T07:16:29.638Z,6.40
2018-12-24T07:18:56.149Z,6.20
2018-12-24T07:21:24.203Z,6.20
2018-12-24T07:23:52.228Z,6.20
2018-12-24T07:26:19.390Z,6.30
2018-12-24T07:28:47.638Z,6.20
2018-12-24T07:31:14.174Z,6.20
2018-12-24T07:33:40.601Z,6.20
2018-12-24T07:36:07.379Z,6.20
2018-12-24T07:38:34.282Z,6.10
2018-12-24T07:41:01.559Z,6.10
2018-12-24T07:43:28.007Z,6.20
2018-12-24T07:45:54.472Z,6.20
2018-12-24T07:48:20.956Z,6.20
2018-12-24T07:50:48.629Z,6.20
2018-12-24T07:53:15.914Z,6.20
2018-12-24T07:55:43.066Z,6.10
2018-12-24T08:00:38.145Z,6.20
2018-12-24T08:03:05.600Z,6.20
2018-12-24T08:05:32.672Z,6.20
2018-12-24T08:07:59.314Z,6.10
2018-12-24T08:10:26.120Z,6.20
2018-12-24T08:12:53.835Z,6.20
2018-12-24T08:15:20.875Z,6.20
2018-12-24T08:17:47.342Z,6.20
2018-12-24T08:20:13.767Z,6.20
2018-12-24T08:22:40.956Z,6.20
2018-12-24T08:25:07.485Z,6.20
2018-12-24T08:27:34.027Z,6.20
2018-12-24T08:30:01.736Z,6.20
2018-12-24T08:32:28.536Z,6.20
2018-12-24T08:34:55.734Z,6.20
2018-12-24T08:39:51.146Z,6.20
2018-12-24T08:44:44.616Z,6.20
2018-12-24T08:47:11.153Z,6.30
2018-12-24T08:49:38.238Z,6.30
2018-12-24T08:52:05.456Z,6.30
2018-12-24T08:54:33.787Z,6.30
2018-12-24T08:57:00.345Z,6.30
2018-12-24T08:59:26.947Z,6.30
2018-12-24T09:01:53.379Z,6.30
2018-12-24T09:04:20.805Z,6.20
2018-12-24T09:06:47.317Z,6.30
2018-12-24T09:11:41.280Z,6.70
2018-12-24T09:14:08.376Z,7.30
2018-12-24T09:16:34.785Z,8.10
2018-12-24T09:19:01.209Z,8.80
2018-12-24T09:21:27.630Z,9.50
2018-12-24T09:23:54.886Z,10.00
2018-12-24T09:26:21.269Z,10.10
2018-12-24T09:28:47.770Z,10.00
2018-12-24T09:31:15.168Z,10.60
2018-12-24T09:33:41.619Z,10.80
2018-12-24T09:36:08.376Z,11.10
2018-12-24T09:38:34.839Z,11.40
2018-12-24T09:43:28.105Z,11.60
2018-12-24T09:45:54.625Z,11.80
2018-12-24T09:48:21.647Z,11.80
2018-12-24T09:50:48.160Z,11.80
2018-12-24T09:53:15.123Z,12.00
2018-12-24T09:55:41.965Z,12.20
2018-12-24T09:58:09.019Z,12.10
2018-12-24T10:00:36.145Z,12.10
2018-12-24T10:03:04.595Z,12.30
2018-12-24T10:05:31.028Z,12.00
2018-12-24T10:08:03.183Z,11.90
2018-12-24T10:10:30.310Z,11.90
2018-12-24T10:12:56.935Z,11.60
2018-12-24T10:15:24.227Z,11.10
2018-12-24T10:17:51.032Z,11.00
2018-12-24T10:20:18.626Z,11.00
2018-12-24T10:25:12.052Z,11.30
2018-12-24T10:27:38.648Z,11.40
2018-12-24T10:32:32.643Z,11.40
2018-12-24T10:34:59.105Z,11.10
2018-12-24T10:37:26.552Z,11.20
2018-12-24T10:39:53.393Z,11.50
2018-12-24T10:42:20.131Z,12.00
2018-12-24T10:47:16.594Z,12.90
2018-12-24T10:49:43.112Z,13.20
2018-12-24T10:52:10.327Z,13.40
2018-12-24T10:59:32.851Z,13.80
2018-12-24T11:01:59.595Z,13.60
2018-12-24T11:04:27.094Z,13.50
2018-12-24T11:06:55.874Z,12.50
2018-12-24T11:09:22.568Z,11.30
2018-12-24T11:11:50.229Z,10.40
2018-12-24T11:14:16.776Z,10.00
2018-12-24T11:16:43.752Z,9.80
2018-12-24T11:19:10.888Z,9.90
2018-12-24T11:24:04.528Z,9.30
2018-12-24T11:26:31.075Z,8.70
2018-12-24T11:28:58.299Z,8.50
2018-12-24T11:33:53.031Z,8.50
2018-12-24T11:36:19.483Z,8.30
2018-12-24T11:38:47.020Z,8.10
2018-12-24T11:41:13.545Z,8.00
2018-12-24T11:46:09.324Z,7.90
2018-12-24T11:51:03.920Z,7.80
2018-12-24T11:53:31.159Z,7.60
2018-12-24T11:55:58.173Z,7.60
2018-12-24T11:58:25.172Z,7.50
2018-12-24T12:00:52.876Z,7.60
2018-12-24T12:03:19.278Z,7.50
2018-12-24T12:08:13.198Z,7.60
2018-12-24T12:10:39.944Z,7.50
2018-12-24T12:13:06.435Z,7.70
2018-12-24T12:20:29.436Z,8.10
2018-12-24T12:22:55.952Z,8.20
2018-12-24T12:27:50.524Z,8.00
2018-12-24T12:30:17.539Z,7.90
2018-12-24T12:32:44.170Z,7.80
2018-12-24T12:35:11.226Z,7.70
2018-12-24T12:40:06.358Z,7.90
2018-12-24T12:42:34.926Z,7.90
2018-12-24T12:45:02.039Z,8.00
2018-12-24T12:47:29.342Z,8.00
2018-12-24T12:49:57.117Z,8.00
2018-12-24T12:52:24.133Z,8.00
2018-12-24T12:54:51.112Z,7.90
2018-12-24T12:57:18.364Z,7.80
2018-12-24T12:59:45.580Z,7.90
2018-12-24T13:07:06.461Z,8.10
2018-12-24T13:12:02.014Z,8.00
2018-12-24T13:14:28.676Z,8.00
2018-12-24T13:19:22.205Z,9.10
2018-12-24T13:21:49.295Z,9.70
2018-12-24T13:24:16.671Z,10.10
2018-12-24T13:26:43.811Z,10.60
2018-12-24T13:29:11.645Z,10.90
2018-12-24T13:31:39.983Z,10.70
2018-12-24T13:34:09.638Z,10.40
2018-12-24T13:39:04.905Z,9.60
2018-12-24T13:41:31.344Z,9.20
2018-12-24T13:43:57.792Z,8.90
2018-12-24T13:46:24.267Z,8.70
2018-12-24T13:48:50.986Z,8.40
2018-12-24T13:51:17.377Z,7.80
2018-12-24T13:53:43.763Z,7.40
2018-12-24T14:03:32.170Z,6.50
2018-12-24T14:06:00.668Z,6.30
2018-12-24T14:10:54.279Z,6.10
2018-12-24T14:13:20.779Z,5.90
2018-12-24T14:20:41.047Z,5.70
2018-12-24T14:23:07.649Z,5.70
2018-12-24T14:28:02.947Z,5.60
2018-12-24T14:32:56.242Z,5.60
2018-12-24T14:35:22.684Z,5.50
2018-12-24T14:40:16.142Z,5.40
2018-12-24T14:42:42.559Z,5.40
2018-12-24T14:45:09.159Z,5.40
2018-12-24T14:50:03.646Z,5.30
2018-12-24T14:52:30.068Z,5.20
2018-12-24T14:54:56.591Z,5.10
2018-12-24T14:59:50.218Z,5.00
2018-12-24T15:04:43.411Z,4.80
2018-12-24T15:09:36.721Z,4.70
2018-12-24T15:12:03.288Z,4.60
2018-12-24T15:14:29.781Z,4.50
2018-12-24T15:16:56.170Z,4.40
2018-12-24T15:19:22.623Z,4.40
2018-12-24T15:21:49.071Z,4.20
2018-12-24T15:26:42.462Z,3.90
2018-12-24T15:29:08.885Z,3.90
2018-12-24T15:31:35.631Z,3.70
2018-12-24T15:34:02.157Z,3.60
2018-12-24T15:36:28.618Z,3.50
2018-12-24T15:38:55.020Z,3.40
2018-12-24T15:41:21.454Z,3.30
2018-12-24T15:43:47.849Z,3.20
2018-12-24T15:46:14.402Z,3.10
2018-12-24T15:48:41.231Z,2.90
2018-12-24T15:53:34.562Z,2.80
2018-12-24T15:56:01.054Z,2.70
2018-12-24T15:58:27.678Z,2.80
2018-12-24T16:00:54.123Z,2.50
2018-12-24T16:03:20.662Z,2.50
2018-12-24T16:05:47.187Z,2.40
2018-12-24T16:08:13.718Z,2.40
2018-12-24T16:10:40.120Z,2.30
2018-12-24T16:13:06.469Z,2.20
2018-12-24T16:15:32.894Z,2.20
2018-12-24T16:17:59.251Z,2.10
2018-12-24T16:20:25.825Z,2.10
2018-12-24T16:22:52.189Z,2.00
2018-12-24T16:25:18.616Z,2.10
2018-12-24T16:30:12.409Z,2.00
2018-12-24T16:32:38.961Z,2.00
2018-12-24T16:35:05.576Z,2.00
2018-12-24T16:37:32.009Z,2.00
2018-12-24T16:39:58.460Z,1.90
2018-12-24T16:42:24.919Z,1.80
2018-12-24T16:44:51.351Z,1.80
2018-12-24T16:47:17.812Z,1.80
2018-12-24T16:49:44.224Z,1.70
2018-12-24T16:52:10.715Z,1.60
2018-12-24T16:54:37.338Z,1.60
2018-12-24T16:59:30.439Z,1.50
2018-12-24T17:01:56.850Z,1.40
2018-12-24T17:04:23.269Z,1.30
2018-12-24T17:06:49.668Z,1.30
2018-12-24T17:09:16.204Z,1.30
2018-12-24T17:11:43.623Z,1.20
2018-12-24T17:14:10.107Z,1.20
2018-12-24T17:16:36.627Z,1.10
2018-12-24T17:19:03.352Z,1.10
2018-12-24T17:21:29.785Z,1.00
2018-12-24T17:23:56.209Z,1.00
2018-12-24T17:26:22.949Z,0.90
2018-12-24T17:28:49.765Z,0.90
2018-12-24T17:31:16.199Z,0.90
2018-12-24T17:33:43.746Z,0.80
2018-12-24T17:36:10.363Z,0.80
2018-12-24T17:38:36.970Z,0.80
2018-12-24T17:41:04.296Z,0.80
2018-12-24T17:43:30.923Z,0.70
2018-12-24T17:45:57.312Z,0.70
2018-12-24T17:48:23.740Z,0.70
2018-12-24T17:50:50.563Z,0.60
2018-12-24T17:53:17.171Z,0.60
2018-12-24T17:55:43.586Z,0.60
2018-12-24T17:58:10.101Z,0.60
2018-12-24T18:00:36.686Z,0.50
2018-12-24T18:03:03.031Z,0.50
2018-12-24T18:05:29.556Z,0.40
2018-12-24T18:07:56.076Z,0.40
2018-12-24T18:10:22.561Z,0.40
2018-12-24T18:12:48.914Z,0.40
2018-12-24T18:15:16.099Z,0.30
2018-12-24T18:17:42.535Z,0.30
2018-12-24T18:20:08.985Z,0.30
2018-12-24T18:22:35.399Z,0.30
2018-12-24T18:27:28.678Z,0.30
2018-12-24T18:29:55.201Z,0.30
2018-12-24T18:34:48.403Z,0.20
2018-12-24T18:39:41.582Z,0.20
2018-12-24T18:42:08.028Z,0.20
2018-12-24T18:47:01.150Z,0.30
2018-12-24T18:49:27.554Z,0.30
2018-12-24T18:51:54.011Z,0.40
2018-12-24T18:54:20.613Z,0.40
2018-12-24T18:56:46.965Z,0.40
2018-12-24T18:59:13.394Z,0.50
2018-12-24T19:04:06.943Z,0.60
2018-12-24T19:06:33.462Z,0.60
2018-12-24T19:08:59.887Z,0.70
2018-12-24T19:11:26.274Z,0.70
2018-12-24T19:13:52.704Z,0.70
2018-12-24T19:16:19.190Z,0.70
2018-12-24T19:21:13.325Z,0.90
2018-12-24T19:23:39.739Z,1.00
2018-12-24T19:26:06.157Z,1.00
2018-12-24T19:28:32.512Z,1.10
2018-12-24T19:30:58.989Z,1.20
2018-12-24T19:33:25.354Z,1.30
2018-12-24T19:38:18.675Z,1.40
2018-12-24T19:40:45.116Z,1.50
2018-12-24T19:43:11.579Z,1.70
2018-12-24T19:45:38.018Z,1.70
2018-12-24T19:48:04.431Z,1.70
2018-12-24T19:50:30.925Z,1.80
2018-12-24T19:52:57.345Z,1.80
2018-12-24T19:55:23.879Z,1.80
2018-12-24T19:57:50.285Z,1.90
2018-12-24T20:02:44.656Z,2.00
2018-12-24T20:05:11.170Z,2.00
2018-12-24T20:07:37.592Z,2.00
2018-12-24T20:12:31.760Z,2.10
2018-12-24T20:17:25.022Z,2.20
2018-12-24T20:19:51.704Z,2.20
2018-12-24T20:22:18.096Z,2.20
2018-12-24T20:24:44.484Z,2.30
2018-12-24T20:27:10.995Z,2.30
2018-12-24T20:29:37.408Z,2.40
2018-12-24T20:32:03.928Z,2.40
2018-12-24T20:36:57.149Z,2.50
2018-12-24T20:39:23.512Z,2.50
2018-12-24T20:41:49.943Z,2.50
2018-12-24T20:44:16.342Z,2.50
2018-12-24T20:46:42.759Z,2.60
2018-12-24T20:49:09.166Z,2.60
2018-12-24T20:51:35.901Z,2.60
2018-12-24T20:58:58.178Z,2.60
2018-12-24T21:03:51.068Z,2.70
2018-12-24T21:08:44.274Z,2.70
2018-12-24T21:13:37.544Z,2.70
2018-12-24T21:18:30.832Z,2.70
2018-12-24T21:20:57.258Z,2.70
2018-12-24T21:23:23.658Z,2.70
2018-12-24T21:25:50.350Z,2.80
2018-12-24T21:28:16.893Z,2.70
2018-12-24T21:30:43.358Z,2.80
2018-12-24T21:33:09.901Z,2.80
2018-12-24T21:35:36.323Z,2.80
2018-12-24T21:38:03.001Z,2.90
2018-12-24T21:40:29.428Z,2.90
2018-12-24T21:42:55.931Z,2.90
2018-12-24T21:45:22.499Z,2.90
2018-12-24T21:47:48.968Z,2.90
2018-12-24T21:52:42.476Z,2.80
2018-12-24T21:55:08.855Z,2.80
2018-12-24T21:57:35.305Z,2.90
2018-12-24T22:00:01.860Z,2.90
2018-12-24T22:02:28.535Z,2.90
2018-12-24T22:04:55.484Z,2.90
2018-12-24T22:07:21.957Z,2.90
2018-12-24T22:09:48.483Z,3.00
2018-12-24T22:12:14.986Z,3.00
2018-12-24T22:14:41.396Z,3.00
2018-12-24T22:19:34.644Z,3.00
2018-12-24T22:26:54.777Z,3.10
2018-12-24T22:31:48.090Z,3.10
2018-12-24T22:34:14.574Z,3.10
2018-12-24T22:36:41.119Z,3.10
2018-12-24T22:39:07.623Z,3.10
2018-12-24T22:46:27.820Z,3.10
2018-12-24T22:48:54.294Z,3.20
2018-12-24T22:53:48.949Z,3.20
2018-12-24T22:56:15.342Z,3.20
2018-12-24T22:58:41.825Z,3.20
2018-12-24T23:01:08.416Z,3.20
2018-12-24T23:06:01.860Z,3.20
2018-12-24T23:08:28.320Z,3.20
2018-12-24T23:18:15.382Z,3.20
2018-12-24T23:20:41.899Z,3.20
2018-12-24T23:23:08.358Z,3.20
2018-12-24T23:28:01.689Z,3.20
2018-12-24T23:30:28.725Z,3.30
2018-12-24T23:32:55.222Z,3.30
2018-12-24T23:35:22.735Z,3.30
2018-12-24T23:40:15.993Z,3.30
2018-12-24T23:42:42.606Z,3.40
2018-12-24T23:45:15.094Z,3.30
2018-12-24T23:47:41.613Z,3.40
2018-12-24T23:50:08.122Z,3.40
2018-12-24T23:52:34.637Z,3.40
2018-12-24T23:55:02.224Z,3.40
2018-12-24T23:57:28.686Z,3.40
